Time;durP1;ratioP1;P1;durP2;ratioP2;P2;SDS_P1;SDS_P2;PMS_P1;PMS_P2;Temp;Humidity;BMP_temperature;BMP_pressure;BME280_temperature;BME280_humidity;BME280_pressure;Samples;Min_cycle;Max_cycle;Signal;HPM_P1;HPM_P2
2021/07/11 00:00:01;;;;;;;0.40;0.20;;;17.30;99.90;;;;;;5085210;28;20399;-83
2021/07/11 00:02:29;;;;;;;0.40;0.20;;;17.40;99.90;;;;;;5096027;28;20718;-84
2021/07/11 00:04:55;;;;;;;0.40;0.20;;;17.40;99.90;;;;;;5109599;28;20400;-81
2021/07/11 00:07:20;;;;;;;0.40;0.20;;;17.40;99.90;;;;;;5113969;28;20845;-84
2021/07/11 00:09:46;;;;;;;0.40;0.22;;;17.40;99.90;;;;;;5101155;28;20398;-84
2021/07/11 00:12:12;;;;;;;0.40;0.20;;;17.40;99.90;;;;;;5115327;28;20377;-84
2021/07/11 00:14:37;;;;;;;0.40;0.20;;;17.40;99.90;;;;;;5114155;28;20380;-83
2021/07/11 00:17:03;;;;;;;0.40;0.20;;;17.30;99.90;;;;;;5114307;28;20748;-81
2021/07/11 00:19:29;;;;;;;0.40;0.20;;;17.30;99.90;;;;;;5113942;28;20403;-83
2021/07/11 00:21:55;;;;;;;0.40;0.20;;;17.40;99.90;;;;;;5114614;28;20381;-84
2021/07/11 00:24:20;;;;;;;0.40;0.20;;;17.20;99.90;;;;;;5095478;28;20455;-83
2021/07/11 00:26:46;;;;;;;0.40;0.20;;;17.30;99.90;;;;;;5105426;28;20417;-82
2021/07/11 00:29:11;;;;;;;0.40;0.20;;;17.30;99.90;;;;;;5093908;28;20382;-83
2021/07/11 00:31:37;;;;;;;0.40;0.20;;;17.30;99.90;;;;;;5093115;28;20420;-82
2021/07/11 00:34:03;;;;;;;0.40;0.20;;;17.30;99.90;;;;;;5096641;28;20740;-80
2021/07/11 00:36:28;;;;;;;0.40;0.20;;;17.40;99.90;;;;;;5101989;28;20388;-79
2021/07/11 00:38:54;;;;;;;0.40;0.20;;;17.40;99.90;;;;;;5113787;28;20483;-83
2021/07/11 00:41:19;;;;;;;0.40;0.20;;;17.30;99.90;;;;;;5098359;28;20386;-83
2021/07/11 00:43:45;;;;;;;0.40;0.20;;;17.40;99.90;;;;;;5094031;28;20378;-83
2021/07/11 00:46:11;;;;;;;0.40;0.20;;;17.40;99.90;;;;;;5093176;28;20382;-82
2021/07/11 00:48:36;;;;;;;0.40;0.30;;;17.30;99.90;;;;;;5074887;28;20390;-82
2021/07/11 00:51:02;;;;;;;0.40;0.20;;;17.40;99.90;;;;;;5093334;28;20427;-83
2021/07/11 00:53:28;;;;;;;0.40;0.20;;;17.40;99.90;;;;;;5099166;28;20850;-84
2021/07/11 00:55:54;;;;;;;0.40;0.20;;;17.40;99.90;;;;;;5093527;28;20379;-82
2021/07/11 00:58:19;;;;;;;0.40;0.20;;;17.30;99.90;;;;;;5074513;28;20417;-85
2021/07/11 01:00:52;;;;;;;0.40;0.20;;;17.40;99.90;;;;;;5075134;28;20472;-83
2021/07/11 01:03:37;;;;;;;0.40;0.20;;;17.30;99.90;;;;;;5093442;28;20393;-82
2021/07/11 01:06:04;;;;;;;0.40;0.20;;;17.30;99.90;;;;;;5093430;28;20379;-82
2021/07/11 01:08:36;;;;;;;0.40;0.20;;;17.30;99.90;;;;;;5092823;28;20393;-82
2021/07/11 01:11:05;;;;;;;0.40;0.20;;;17.30;99.90;;;;;;5092310;28;20385;-83
2021/07/11 01:13:32;;;;;;;0.40;0.20;;;17.30;99.90;;;;;;5074478;28;20374;-84
2021/07/11 01:16:03;;;;;;;0.40;0.22;;;17.30;99.90;;;;;;5093079;28;20719;-83
2021/07/11 01:18:30;;;;;;;0.40;0.20;;;17.30;99.90;;;;;;5092576;28;20413;-84
2021/07/11 01:21:03;;;;;;;0.40;0.20;;;17.20;99.90;;;;;;5092781;28;20381;-83
2021/07/11 01:23:49;;;;;;;0.40;0.20;;;17.20;99.90;;;;;;5092532;28;20374;-83
2021/07/11 01:26:16;;;;;;;0.40;0.20;;;17.20;99.90;;;;;;5092623;28;20382;-83
2021/07/11 01:28:42;;;;;;;0.40;0.20;;;17.30;99.90;;;;;;5096022;28;20388;-83
2021/07/11 01:31:09;;;;;;;0.40;0.20;;;17.40;99.90;;;;;;5113482;28;20419;-82
2021/07/11 01:33:38;;;;;;;0.40;0.20;;;17.40;99.90;;;;;;5112274;28;20848;-82
2021/07/11 01:36:05;;;;;;;0.40;0.30;;;17.40;99.90;;;;;;5094995;28;20907;-80
2021/07/11 01:38:32;;;;;;;0.40;0.20;;;17.40;99.90;;;;;;5112204;28;20408;-82
2021/07/11 01:40:58;;;;;;;0.40;0.20;;;17.40;99.90;;;;;;5112796;28;20381;-82
2021/07/11 01:43:25;;;;;;;0.40;0.20;;;17.50;99.90;;;;;;5112384;28;20388;-82
2021/07/11 01:45:52;;;;;;;0.40;0.20;;;17.40;99.90;;;;;;5112899;28;20420;-82
2021/07/11 01:48:18;;;;;;;0.40;0.30;;;17.40;99.90;;;;;;5112520;28;20884;-83
2021/07/11 01:50:50;;;;;;;0.40;0.20;;;17.50;99.90;;;;;;5112195;28;20845;-82
2021/07/11 01:53:17;;;;;;;0.40;0.20;;;17.50;99.90;;;;;;5075561;28;20747;-83
2021/07/11 01:55:42;;;;;;;0.40;0.30;;;17.40;99.90;;;;;;5091726;28;20439;-81
2021/07/11 01:58:08;;;;;;;0.40;0.20;;;17.40;99.90;;;;;;5092252;28;20425;-82
2021/07/11 02:00:34;;;;;;;0.40;0.20;;;17.40;99.90;;;;;;5091685;28;20389;-77
2021/07/11 02:02:59;;;;;;;0.40;0.20;;;17.40;99.90;;;;;;5091883;28;20800;-81
2021/07/11 02:05:25;;;;;;;0.40;0.20;;;17.50;99.90;;;;;;5091651;28;20378;-82
2021/07/11 02:07:51;;;;;;;0.40;0.20;;;17.50;99.90;;;;;;5091799;28;20382;-81
2021/07/11 02:10:17;;;;;;;0.40;0.20;;;17.40;99.90;;;;;;5092098;28;20435;-81
2021/07/11 02:13:04;;;;;;;0.40;0.20;;;17.50;99.90;;;;;;5091456;28;20386;-83
2021/07/11 02:15:31;;;;;;;0.40;0.20;;;17.40;99.90;;;;;;5091726;28;20377;-82
2021/07/11 02:17:58;;;;;;;0.40;0.20;;;17.30;99.90;;;;;;5091946;28;20410;-82
2021/07/11 02:20:24;;;;;;;0.40;0.20;;;17.10;99.90;;;;;;5073272;28;20482;-83
2021/07/11 02:22:52;;;;;;;0.40;0.20;;;17.10;99.90;;;;;;5091176;28;20374;-81
2021/07/11 02:25:20;;;;;;;0.40;0.30;;;17.10;99.90;;;;;;5091686;28;20378;-82
2021/07/11 02:27:48;;;;;;;0.40;0.20;;;17.10;99.90;;;;;;5090812;28;20464;-81
2021/07/11 02:30:25;;;;;;;0.40;0.20;;;17.10;99.90;;;;;;5108543;28;20388;-82
2021/07/11 02:32:53;;;;;;;0.40;0.20;;;17.00;99.90;;;;;;5112145;28;20405;-81
2021/07/11 02:35:41;;;;;;;0.40;0.20;;;16.90;99.90;;;;;;5093852;28;20467;-81
2021/07/11 02:38:08;;;;;;;0.40;0.20;;;16.80;99.90;;;;;;5107119;28;20416;-81
2021/07/11 02:40:34;;;;;;;0.40;0.20;;;16.80;99.90;;;;;;5098931;28;20497;-82
2021/07/11 02:43:05;;;;;;;0.40;0.20;;;16.70;99.90;;;;;;5100158;28;20376;-81
2021/07/11 02:45:32;;;;;;;0.40;0.20;;;16.60;99.90;;;;;;5111523;28;20924;-82
2021/07/11 02:48:00;;;;;;;0.40;0.20;;;16.60;99.90;;;;;;5111819;28;20388;-81
2021/07/11 02:50:26;;;;;;;0.40;0.20;;;16.60;99.90;;;;;;5111291;28;20457;-82
2021/07/11 02:52:55;;;;;;;0.40;0.20;;;16.50;99.90;;;;;;5096209;28;20495;-80
2021/07/11 02:55:25;;;;;;;0.40;0.20;;;16.40;99.90;;;;;;5091464;28;20371;-81
2021/07/11 02:57:55;;;;;;;0.40;0.20;;;16.30;99.90;;;;;;5109248;28;20888;-81
2021/07/11 03:00:21;;;;;;;0.40;0.20;;;16.30;99.90;;;;;;5093384;28;20378;-80
2021/07/11 03:02:47;;;;;;;0.40;0.20;;;16.20;99.90;;;;;;5090723;28;20469;-81
2021/07/11 03:05:24;;;;;;;0.40;0.20;;;16.10;99.90;;;;;;5091430;28;20458;-80
2021/07/11 03:07:51;;;;;;;0.40;0.20;;;16.00;99.90;;;;;;5090725;28;20382;-81
2021/07/11 03:10:17;;;;;;;0.40;0.20;;;16.00;99.90;;;;;;5091292;28;20378;-80
2021/07/11 03:12:45;;;;;;;0.40;0.20;;;16.00;99.90;;;;;;5090542;28;20390;-81
2021/07/11 03:15:11;;;;;;;0.40;0.20;;;15.90;99.90;;;;;;5090969;28;20735;-81
2021/07/11 03:17:39;;;;;;;0.40;0.30;;;15.80;99.90;;;;;;5090393;28;20374;-81
2021/07/11 03:20:06;;;;;;;0.40;0.20;;;15.80;99.90;;;;;;5091549;28;20417;-81
2021/07/11 03:22:35;;;;;;;0.40;0.20;;;15.70;99.90;;;;;;5090510;28;20378;-81
2021/07/11 03:25:05;;;;;;;0.40;0.20;;;15.60;99.90;;;;;;5073020;28;20382;-81
2021/07/11 03:27:31;;;;;;;0.40;0.30;;;15.60;99.90;;;;;;5090266;28;20448;-80
2021/07/11 03:30:04;;;;;;;0.40;0.25;;;15.60;99.90;;;;;;5091200;28;20780;-81
2021/07/11 03:32:37;;;;;;;0.40;0.20;;;15.40;99.90;;;;;;5090517;28;20378;-82
2021/07/11 03:35:05;;;;;;;0.40;0.20;;;15.50;99.90;;;;;;5092433;28;20378;-80
2021/07/11 03:37:36;;;;;;;0.40;0.20;;;15.50;99.90;;;;;;5094300;28;20405;-81
2021/07/11 03:40:03;;;;;;;0.40;0.20;;;15.50;99.90;;;;;;5095098;28;20392;-81
2021/07/11 03:42:33;;;;;;;0.40;0.20;;;15.50;99.90;;;;;;5094273;28;20410;-82
2021/07/11 03:45:00;;;;;;;0.40;0.20;;;15.40;99.90;;;;;;5095037;28;20390;-80
2021/07/11 03:47:36;;;;;;;0.40;0.20;;;15.40;99.90;;;;;;5094632;28;20750;-80
2021/07/11 03:50:03;;;;;;;0.40;0.20;;;15.70;99.90;;;;;;5094891;28;20381;-80
2021/07/11 03:52:32;;;;;;;0.40;0.20;;;15.30;99.90;;;;;;5106422;28;20384;-82
2021/07/11 03:55:00;;;;;;;0.40;0.20;;;15.30;99.90;;;;;;5115369;28;20365;-81
2021/07/11 03:57:30;;;;;;;0.40;0.20;;;15.30;99.90;;;;;;5115003;28;20392;-80
2021/07/11 03:59:58;;;;;;;0.40;0.30;;;15.30;99.90;;;;;;5115280;28;20416;-80
2021/07/11 04:02:27;;;;;;;0.40;0.20;;;15.50;99.90;;;;;;5096592;28;20400;-81
2021/07/11 04:04:56;;;;;;;3.20;0.90;;;15.50;99.90;;;;;;5096110;28;20481;-80
2021/07/11 04:07:22;;;;;;;0.40;0.20;;;15.40;99.90;;;;;;5096686;28;20884;-80
2021/07/11 04:09:49;;;;;;;0.40;0.30;;;15.40;99.90;;;;;;5114340;28;20376;-80
2021/07/11 04:12:14;;;;;;;0.40;0.20;;;15.40;99.90;;;;;;5115193;28;20427;-80
2021/07/11 04:14:40;;;;;;;0.40;0.20;;;15.50;99.90;;;;;;5114215;28;20404;-81
2021/07/11 04:17:09;;;;;;;0.40;0.20;;;15.50;99.90;;;;;;5114734;28;20848;-80
2021/07/11 04:19:39;;;;;;;0.40;0.30;;;15.60;99.90;;;;;;5113917;28;20445;-81
2021/07/11 04:22:06;;;;;;;0.40;0.20;;;15.50;99.90;;;;;;5114739;28;20376;-80
2021/07/11 04:24:35;;;;;;;0.40;0.20;;;15.60;99.90;;;;;;5114313;28;20375;-81
2021/07/11 04:27:01;;;;;;;0.40;0.20;;;15.60;99.90;;;;;;5114106;28;20748;-80
2021/07/11 04:29:29;;;;;;;0.40;0.30;;;15.60;99.90;;;;;;5114559;28;20792;-80
2021/07/11 04:31:55;;;;;;;0.40;0.20;;;15.50;99.90;;;;;;5113874;28;20383;-80
2021/07/11 04:34:30;;;;;;;0.40;0.20;;;15.60;99.90;;;;;;5114430;28;20404;-80
2021/07/11 04:36:58;;;;;;;0.40;0.20;;;15.60;99.90;;;;;;5076655;28;20394;-80
2021/07/11 04:39:24;;;;;;;0.40;0.20;;;15.60;99.90;;;;;;5093492;28;20414;-80
2021/07/11 04:41:50;;;;;;;0.40;0.20;;;15.70;99.90;;;;;;5093257;28;20468;-80
2021/07/11 04:44:16;;;;;;;0.40;0.20;;;15.60;99.90;;;;;;5093827;28;20700;-80
2021/07/11 04:46:43;;;;;;;0.40;0.30;;;15.60;99.90;;;;;;5091964;28;20485;-80
2021/07/11 04:49:09;;;;;;;0.40;0.20;;;15.50;99.90;;;;;;5093322;28;20878;-80
2021/07/11 04:51:35;;;;;;;0.40;0.20;;;15.60;99.90;;;;;;5079435;28;20385;-80
2021/07/11 04:54:04;;;;;;;0.40;0.20;;;15.60;99.90;;;;;;5113902;28;20383;-80
2021/07/11 04:56:29;;;;;;;0.40;0.20;;;15.60;99.90;;;;;;5114031;28;20385;-80
2021/07/11 04:58:55;;;;;;;0.40;0.22;;;15.70;99.90;;;;;;5113187;28;20404;-80
2021/07/11 05:01:21;;;;;;;0.40;0.20;;;15.70;99.90;;;;;;5113977;28;20381;-80
2021/07/11 05:03:46;;;;;;;0.40;0.20;;;15.80;99.90;;;;;;5113197;28;20706;-81
2021/07/11 05:06:12;;;;;;;0.40;0.20;;;15.80;99.90;;;;;;5114134;28;20848;-80
2021/07/11 05:08:38;;;;;;;0.40;0.20;;;15.90;99.90;;;;;;5113161;28;20369;-81
2021/07/11 05:11:03;;;;;;;0.40;0.20;;;15.90;99.90;;;;;;5113726;28;20380;-80
2021/07/11 05:13:29;;;;;;;0.40;0.20;;;15.90;99.90;;;;;;5113438;28;20429;-80
2021/07/11 05:15:54;;;;;;;0.40;0.20;;;16.00;99.90;;;;;;5112773;28;20587;-80
2021/07/11 05:18:20;;;;;;;0.40;0.30;;;16.10;99.90;;;;;;5113172;28;20404;-80
2021/07/11 05:20:46;;;;;;;0.40;0.20;;;16.10;99.90;;;;;;5113015;28;20376;-80
2021/07/11 05:23:11;;;;;;;0.40;0.20;;;16.20;99.90;;;;;;5113390;28;20376;-80
2021/07/11 05:25:37;;;;;;;0.40;0.20;;;16.30;99.90;;;;;;5112632;28;20471;-81
2021/07/11 05:28:04;;;;;;;0.40;0.20;;;16.30;99.90;;;;;;5113441;28;20416;-80
2021/07/11 05:30:31;;;;;;;0.40;0.30;;;16.40;99.90;;;;;;5113016;28;20418;-80
2021/07/11 05:32:56;;;;;;;0.40;0.20;;;16.40;99.90;;;;;;5094460;28;20393;-81
2021/07/11 05:35:22;;;;;;;0.40;0.30;;;16.60;99.90;;;;;;5113463;28;20910;-80
2021/07/11 05:37:48;;;;;;;0.40;0.20;;;16.50;99.90;;;;;;5112576;28;20495;-80
2021/07/11 05:40:16;;;;;;;0.40;0.20;;;16.50;99.90;;;;;;5112970;28;20486;-80
2021/07/11 05:42:42;;;;;;;0.40;0.30;;;16.60;99.90;;;;;;5112590;28;20476;-81
2021/07/11 05:45:09;;;;;;;0.40;0.30;;;16.70;99.90;;;;;;5112961;28;20399;-80
2021/07/11 05:47:35;;;;;;;0.40;0.20;;;16.70;99.90;;;;;;5112783;28;20379;-80
2021/07/11 05:50:01;;;;;;;0.40;0.20;;;16.80;99.90;;;;;;5113122;28;20376;-80
2021/07/11 05:52:26;;;;;;;0.40;0.30;;;16.90;99.90;;;;;;5100842;28;20378;-80
2021/07/11 05:54:52;;;;;;;0.40;0.20;;;16.80;99.90;;;;;;5073680;28;20530;-81
2021/07/11 05:57:19;;;;;;;0.40;0.20;;;16.80;99.90;;;;;;5092315;28;20429;-80
2021/07/11 05:59:44;;;;;;;0.40;0.30;;;16.80;99.90;;;;;;5091675;28;20410;-81
2021/07/11 06:02:10;;;;;;;0.40;0.20;;;16.90;99.90;;;;;;5092373;28;20381;-81
2021/07/11 06:04:37;;;;;;;0.40;0.30;;;16.80;99.90;;;;;;5092311;28;20850;-81
2021/07/11 06:07:03;;;;;;;0.40;0.20;;;17.00;99.90;;;;;;5092355;28;20397;-81
2021/07/11 06:09:29;;;;;;;0.40;0.20;;;16.90;99.90;;;;;;5092481;28;20443;-79
2021/07/11 06:11:54;;;;;;;0.40;0.20;;;16.70;99.90;;;;;;5091516;28;20857;-80
2021/07/11 06:14:20;;;;;;;0.40;0.20;;;16.70;99.90;;;;;;5092036;28;20473;-79
2021/07/11 06:16:46;;;;;;;0.40;0.20;;;16.80;99.90;;;;;;5091492;28;20473;-79
2021/07/11 06:19:15;;;;;;;0.40;0.20;;;16.80;99.90;;;;;;5092075;28;20763;-79
2021/07/11 06:21:42;;;;;;;0.40;0.20;;;16.80;99.90;;;;;;5091707;28;20399;-79
2021/07/11 06:24:08;;;;;;;0.40;0.20;;;16.80;99.90;;;;;;5091960;28;20373;-79
2021/07/11 06:26:33;;;;;;;0.40;0.20;;;16.90;99.90;;;;;;5091692;28;20410;-79
2021/07/11 06:28:59;;;;;;;0.40;0.20;;;16.90;99.90;;;;;;5091229;28;20400;-79
2021/07/11 06:31:25;;;;;;;0.40;0.20;;;16.90;99.90;;;;;;5091773;28;20886;-80
2021/07/11 06:33:51;;;;;;;0.40;0.30;;;16.90;99.90;;;;;;5091219;28;20522;-81
2021/07/11 06:36:16;;;;;;;0.40;0.20;;;17.00;99.90;;;;;;5091338;28;20821;-81
2021/07/11 06:38:42;;;;;;;0.40;0.20;;;17.10;99.90;;;;;;5091269;28;20453;-82
2021/07/11 06:41:08;;;;;;;0.40;0.30;;;17.30;99.90;;;;;;5091667;28;20863;-80
2021/07/11 06:43:33;;;;;;;0.40;0.20;;;17.40;99.90;;;;;;5091710;28;20386;-79
2021/07/11 06:45:59;;;;;;;0.40;0.20;;;17.30;99.90;;;;;;5090833;28;20519;-79
2021/07/11 06:48:25;;;;;;;0.40;0.30;;;17.40;99.90;;;;;;5091674;28;20382;-80
2021/07/11 06:50:51;;;;;;;0.40;0.20;;;17.60;99.90;;;;;;5091204;28;20376;-80
2021/07/11 06:53:16;;;;;;;0.40;0.20;;;17.60;99.90;;;;;;5092139;28;20404;-80
2021/07/11 06:55:42;;;;;;;0.40;0.30;;;17.70;99.90;;;;;;5110946;28;20380;-81
2021/07/11 06:58:08;;;;;;;1.20;0.50;;;17.80;99.90;;;;;;5093240;28;20481;-81
2021/07/11 07:00:34;;;;;;;0.40;0.20;;;18.00;99.90;;;;;;5111679;28;20402;-80
2021/07/11 07:03:00;;;;;;;0.40;0.20;;;17.90;99.90;;;;;;5092949;28;20707;-81
2021/07/11 07:05:25;;;;;;;0.40;0.30;;;17.90;99.90;;;;;;5111771;28;20459;-81
2021/07/11 07:07:52;;;;;;;0.40;0.27;;;18.20;99.90;;;;;;5111143;28;20380;-80
2021/07/11 07:10:18;;;;;;;0.40;0.20;;;18.30;99.90;;;;;;5113826;28;20408;-80
2021/07/11 07:12:44;;;;;;;0.40;0.20;;;18.40;99.90;;;;;;5115456;28;20425;-81
2021/07/11 07:15:12;;;;;;;0.40;0.20;;;18.30;99.90;;;;;;5097453;28;20376;-82
2021/07/11 07:17:37;;;;;;;0.40;0.30;;;18.30;99.90;;;;;;5110169;28;20401;-82
2021/07/11 07:20:06;;;;;;;0.40;0.30;;;18.20;99.90;;;;;;5097681;28;20388;-82
2021/07/11 07:22:35;;;;;;;0.40;0.30;;;18.20;99.90;;;;;;5099930;28;20431;-81
2021/07/11 07:25:03;;;;;;;0.40;0.20;;;18.20;99.90;;;;;;5093878;28;20417;-81
2021/07/11 07:27:28;;;;;;;0.40;0.20;;;18.30;99.90;;;;;;5098372;28;21070;-82
2021/07/11 07:29:54;;;;;;;0.40;0.30;;;18.30;99.90;;;;;;5099070;28;20420;-81
2021/07/11 07:32:19;;;;;;;0.40;0.30;;;18.40;99.90;;;;;;5083840;28;20518;-77
2021/07/11 07:34:45;;;;;;;0.40;0.20;;;18.50;99.90;;;;;;5095644;28;20387;-82
2021/07/11 07:37:11;;;;;;;0.40;0.30;;;18.50;99.90;;;;;;5102111;28;20458;-81
2021/07/11 07:39:36;;;;;;;0.40;0.20;;;18.60;99.90;;;;;;5105953;28;20414;-81
2021/07/11 07:42:03;;;;;;;0.40;0.20;;;18.60;99.90;;;;;;5102131;28;20728;-82
2021/07/11 07:44:30;;;;;;;0.40;0.20;;;18.80;99.90;;;;;;5079645;28;20526;-82
2021/07/11 07:46:56;;;;;;;0.40;0.30;;;18.80;99.90;;;;;;5097833;28;20487;-80
2021/07/11 07:49:22;;;;;;;0.40;0.30;;;18.70;99.90;;;;;;5104128;28;20391;-82
2021/07/11 07:51:48;;;;;;;0.40;0.20;;;18.70;99.90;;;;;;5105041;28;20393;-83
2021/07/11 07:54:13;;;;;;;0.40;0.20;;;18.70;99.90;;;;;;5080936;28;20871;-82
2021/07/11 07:56:39;;;;;;;0.40;0.22;;;18.70;99.90;;;;;;5084996;28;20405;-76
2021/07/11 07:59:05;;;;;;;0.40;0.28;;;18.80;99.90;;;;;;5106815;28;20408;-83
2021/07/11 08:01:30;;;;;;;0.40;0.20;;;18.90;99.90;;;;;;5100093;28;20384;-82
2021/07/11 08:03:56;;;;;;;0.40;0.20;;;18.90;99.90;;;;;;5083925;28;21078;-81
2021/07/11 08:06:22;;;;;;;0.40;0.30;;;18.80;99.90;;;;;;5080948;28;20547;-82
2021/07/11 08:08:48;;;;;;;0.40;0.30;;;18.80;99.90;;;;;;5093610;28;20884;-80
2021/07/11 08:11:13;;;;;;;0.40;0.20;;;18.90;99.90;;;;;;5098076;28;20859;-81
2021/07/11 08:13:39;;;;;;;0.40;0.20;;;19.00;99.90;;;;;;5079101;28;20383;-83
2021/07/11 08:16:06;;;;;;;0.40;0.20;;;19.00;99.90;;;;;;5103483;28;20393;-79
2021/07/11 08:18:32;;;;;;;0.40;0.30;;;18.90;99.90;;;;;;5105684;28;20411;-80
2021/07/11 08:20:58;;;;;;;0.40;0.20;;;18.80;99.90;;;;;;5098790;28;20592;-83
2021/07/11 08:23:24;;;;;;;0.40;0.20;;;18.90;99.90;;;;;;5100064;28;20491;-83
2021/07/11 08:25:50;;;;;;;0.40;0.20;;;19.00;99.90;;;;;;5100197;28;20408;-83
2021/07/11 08:28:16;;;;;;;0.40;0.30;;;19.10;99.90;;;;;;5096660;28;20449;-82
2021/07/11 08:30:41;;;;;;;0.40;0.23;;;19.00;99.90;;;;;;5101071;28;20475;-81
2021/07/11 08:33:09;;;;;;;0.40;0.20;;;19.30;99.90;;;;;;5098155;28;20426;-82
2021/07/11 08:35:35;;;;;;;0.40;0.20;;;19.30;99.90;;;;;;5102332;28;20798;-81
2021/07/11 08:38:02;;;;;;;0.40;0.30;;;19.20;99.90;;;;;;5099835;28;20409;-82
2021/07/11 08:40:34;;;;;;;0.40;0.20;;;19.30;99.90;;;;;;5104432;28;20442;-81
2021/07/11 08:43:02;;;;;;;0.40;0.20;;;19.30;99.90;;;;;;5094725;28;20747;-82
2021/07/11 08:45:28;;;;;;;0.40;0.28;;;19.20;99.90;;;;;;5099341;28;20439;-79
2021/07/11 08:47:54;;;;;;;0.40;0.30;;;19.50;99.90;;;;;;5096426;28;20402;-81
2021/07/11 08:50:20;;;;;;;0.40;0.20;;;19.60;99.90;;;;;;5081187;28;20912;-79
2021/07/11 08:52:47;;;;;;;0.40;0.20;;;19.80;99.90;;;;;;5100026;28;20390;-83
2021/07/11 08:55:24;;;;;;;0.40;0.20;;;19.70;99.90;;;;;;5097240;28;20402;-81
2021/07/11 08:57:55;;;;;;;0.40;0.20;;;20.00;99.90;;;;;;5099753;28;20392;-81
2021/07/11 09:00:29;;;;;;;0.40;0.30;;;19.70;99.90;;;;;;5100876;28;20392;-81
2021/07/11 09:02:55;;;;;;;0.40;0.20;;;19.70;99.90;;;;;;5097920;28;20824;-75
2021/07/11 09:05:29;;;;;;;0.40;0.20;;;19.60;99.90;;;;;;5102119;28;20378;-78
2021/07/11 09:08:06;;;;;;;0.40;0.30;;;19.40;99.90;;;;;;5097660;28;20390;-81
2021/07/11 09:10:36;;;;;;;0.40;0.20;;;19.50;99.90;;;;;;5081335;28;20851;-79
2021/07/11 09:13:07;;;;;;;0.40;0.23;;;19.50;99.90;;;;;;5081169;28;20391;-81
2021/07/11 09:15:35;;;;;;;0.40;0.30;;;19.70;99.90;;;;;;5095499;28;20867;-82
2021/07/11 09:18:02;;;;;;;0.40;0.20;;;19.70;99.90;;;;;;5100527;28;20409;-77
2021/07/11 09:20:28;;;;;;;0.40;0.20;;;19.80;99.90;;;;;;5101400;28;20401;-83
2021/07/11 09:23:02;;;;;;;0.40;0.20;;;19.90;99.90;;;;;;5104673;28;20372;-80
2021/07/11 09:25:28;;;;;;;0.40;0.20;;;19.80;99.90;;;;;;5095114;28;20469;-80
2021/07/11 09:27:54;;;;;;;0.40;0.30;;;19.80;99.90;;;;;;5058636;28;20422;-81
2021/07/11 09:30:20;;;;;;;0.40;0.20;;;19.90;99.90;;;;;;5075121;28;20503;-82
2021/07/11 09:32:51;;;;;;;0.40;0.20;;;19.90;99.90;;;;;;5074882;28;20379;-81
2021/07/11 09:35:22;;;;;;;0.40;0.30;;;20.10;99.90;;;;;;5072083;28;20380;-82
2021/07/11 09:37:52;;;;;;;0.40;0.20;;;20.10;99.90;;;;;;5079682;28;20832;-81
2021/07/11 09:40:19;;;;;;;0.40;0.20;;;20.10;99.90;;;;;;5074104;28;20895;-76
2021/07/11 09:42:47;;;;;;;0.40;0.20;;;20.10;99.90;;;;;;5080947;28;20477;-86
2021/07/11 09:45:19;;;;;;;0.40;0.30;;;20.30;99.90;;;;;;5076282;28;20376;-86
2021/07/11 09:47:46;;;;;;;0.40;0.20;;;20.50;99.90;;;;;;5078060;28;20388;-86
2021/07/11 09:50:21;;;;;;;0.40;0.30;;;20.30;99.90;;;;;;5070815;28;20441;-80
2021/07/11 09:52:53;;;;;;;0.40;0.30;;;20.40;99.90;;;;;;5078937;28;20740;-81
2021/07/11 09:55:20;;;;;;;0.40;0.20;;;20.30;99.90;;;;;;5081197;28;20695;-89
2021/07/11 09:57:59;;;;;;;0.40;0.20;;;20.40;99.90;;;;;;5085537;28;20444;-89
2021/07/11 10:00:31;;;;;;;0.40;0.30;;;20.30;99.90;;;;;;5080124;28;20948;-89
2021/07/11 10:03:03;;;;;;;0.40;0.20;;;20.70;99.90;;;;;;5078510;28;20398;-89
2021/07/11 10:05:30;;;;;;;0.40;0.20;;;20.70;99.90;;;;;;5080897;28;20887;-87
2021/07/11 10:07:56;;;;;;;0.40;0.28;;;21.00;99.90;;;;;;5079166;28;20390;-88
2021/07/11 10:10:26;;;;;;;0.40;0.20;;;21.00;99.90;;;;;;5082547;28;20469;-86
2021/07/11 10:12:53;;;;;;;0.40;0.30;;;20.90;99.90;;;;;;5079852;28;20426;-84
2021/07/11 10:15:20;;;;;;;0.40;0.30;;;20.90;99.90;;;;;;5057758;28;20467;-83
2021/07/11 10:18:07;;;;;;;0.40;0.20;;;20.60;99.90;;;;;;5065013;28;20394;-89
2021/07/11 10:20:34;;;;;;;0.40;0.30;;;20.50;99.90;;;;;;5074965;28;20389;-88
2021/07/11 10:23:01;;;;;;;0.40;0.20;;;20.60;99.90;;;;;;5074158;28;20392;-84
2021/07/11 10:25:28;;;;;;;0.40;0.30;;;20.70;99.90;;;;;;5077038;28;20391;-82
2021/07/11 10:28:13;;;;;;;0.40;0.30;;;20.90;99.90;;;;;;5061980;28;20420;-85
2021/07/11 10:30:41;;;;;;;0.40;0.20;;;20.70;99.90;;;;;;5076628;28;20405;-86
2021/07/11 10:33:13;;;;;;;0.40;0.30;;;20.80;99.90;;;;;;5076503;28;20779;-86
2021/07/11 10:35:48;;;;;;;0.40;0.30;;;20.70;99.90;;;;;;5077312;28;20443;-87
2021/07/11 10:38:13;;;;;;;0.40;0.20;;;20.60;99.90;;;;;;5077687;28;20409;-86
2021/07/11 10:40:39;;;;;;;0.40;0.30;;;20.40;99.90;;;;;;5075284;28;20798;-81
2021/07/11 10:43:12;;;;;;;0.40;0.20;;;20.60;99.90;;;;;;5081107;28;20462;-87
2021/07/11 10:45:48;;;;;;;0.40;0.20;;;20.60;99.90;;;;;;5062519;28;20457;-90
2021/07/11 10:48:14;;;;;;;0.40;0.30;;;20.90;99.90;;;;;;5078954;28;20643;-89
2021/07/11 10:50:43;;;;;;;0.40;0.30;;;20.70;99.90;;;;;;5075460;28;20773;-88
2021/07/11 10:53:19;;;;;;;0.40;0.20;;;20.90;99.90;;;;;;5077068;28;20384;-88
2021/07/11 10:55:45;;;;;;;0.40;0.20;;;21.20;99.90;;;;;;5078378;28;20384;-89
2021/07/11 10:58:18;;;;;;;0.40;0.20;;;21.20;99.90;;;;;;5080669;28;20489;-83
2021/07/11 11:00:48;;;;;;;0.40;0.20;;;21.30;99.60;;;;;;5064690;28;20975;-89
2021/07/11 11:03:22;;;;;;;0.40;0.30;;;21.30;99.30;;;;;;5076863;28;20438;-89
2021/07/11 11:05:50;;;;;;;0.40;0.30;;;21.30;97.50;;;;;;5079517;28;20788;-89
2021/07/11 11:08:22;;;;;;;0.40;0.20;;;21.20;98.50;;;;;;5059339;28;20902;-89
2021/07/11 11:10:51;;;;;;;0.40;0.20;;;21.10;97.70;;;;;;5079284;28;20419;-88
2021/07/11 11:13:20;;;;;;;0.40;0.30;;;21.10;96.90;;;;;;5080420;28;20392;-90
2021/07/11 11:15:47;;;;;;;0.40;0.27;;;21.30;91.00;;;;;;5079535;28;20384;-88
2021/07/11 11:18:29;;;;;;;0.40;0.20;;;21.60;90.10;;;;;;5080583;28;20408;-89
2021/07/11 11:21:07;;;;;;;0.40;0.20;;;21.70;90.40;;;;;;5081652;28;20468;-87
2021/07/11 11:23:39;;;;;;;0.40;0.20;;;21.80;92.70;;;;;;5075055;28;20450;-85
2021/07/11 11:26:07;;;;;;;0.40;0.30;;;22.30;94.60;;;;;;5061170;28;20465;-87
2021/07/11 11:28:39;;;;;;;0.40;0.30;;;22.20;92.10;;;;;;5097426;28;20425;-88
2021/07/11 11:31:13;;;;;;;0.40;0.30;;;22.40;91.00;;;;;;5099094;28;20433;-85
2021/07/11 11:33:48;;;;;;;0.40;0.30;;;22.70;89.70;;;;;;5097972;28;20412;-84
2021/07/11 11:36:18;;;;;;;0.40;0.30;;;23.10;90.70;;;;;;5097450;28;20370;-82
2021/07/11 11:38:43;;;;;;;0.40;0.30;;;23.00;91.10;;;;;;5096158;28;20400;-84
2021/07/11 11:41:17;;;;;;;0.40;0.20;;;23.30;91.10;;;;;;5094693;28;20384;-85
2021/07/11 11:43:43;;;;;;;0.40;0.20;;;23.30;91.20;;;;;;5094153;28;20402;-85
2021/07/11 11:46:09;;;;;;;0.40;0.20;;;22.70;92.60;;;;;;5072780;28;20739;-87
2021/07/11 11:48:36;;;;;;;0.47;0.28;;;23.30;91.20;;;;;;5093029;28;20385;-86
2021/07/11 11:51:04;;;;;;;0.40;0.20;;;23.70;92.10;;;;;;5093091;28;20384;-86
2021/07/11 11:53:30;;;;;;;0.40;0.20;;;23.30;90.00;;;;;;5093829;28;20927;-87
2021/07/11 11:55:57;;;;;;;0.40;0.20;;;23.00;90.50;;;;;;5094025;28;20419;-84
2021/07/11 11:58:31;;;;;;;0.40;0.30;;;22.70;91.70;;;;;;5097653;28;20417;-89
2021/07/11 12:01:04;;;;;;;0.40;0.30;;;22.20;92.80;;;;;;5097072;28;20465;-87
2021/07/11 12:03:30;;;;;;;0.40;0.20;;;22.20;94.50;;;;;;5097626;28;20874;-90
2021/07/11 12:06:00;;;;;;;0.40;0.30;;;22.00;93.20;;;;;;5101654;28;20417;-89
2021/07/11 12:08:28;;;;;;;0.40;0.20;;;22.10;94.20;;;;;;5101424;28;20440;-87
2021/07/11 12:10:59;;;;;;;0.40;0.30;;;22.50;97.00;;;;;;5099832;28;20425;-88
2021/07/11 12:13:26;;;;;;;0.40;0.20;;;22.70;93.70;;;;;;5095376;28;20460;-86
2021/07/11 12:16:11;;;;;;;0.40;0.30;;;22.80;93.10;;;;;;5101447;28;20396;-86
2021/07/11 12:18:51;;;;;;;0.40;0.20;;;23.30;93.10;;;;;;5081699;28;20405;-87
2021/07/11 12:21:26;;;;;;;0.40;0.20;;;23.40;92.50;;;;;;5080437;28;20392;-90
2021/07/11 12:24:11;;;;;;;0.40;0.30;;;23.30;90.20;;;;;;5099597;28;20427;-90
2021/07/11 12:26:39;;;;;;;0.40;0.30;;;23.50;94.00;;;;;;5103223;28;20443;-90
2021/07/11 12:29:05;;;;;;;0.40;0.20;;;23.70;90.90;;;;;;5108086;28;20749;-90
2021/07/11 12:31:33;;;;;;;0.40;0.30;;;22.60;94.30;;;;;;5098994;28;20401;-89
2021/07/11 12:34:01;;;;;;;0.40;0.30;;;22.60;92.60;;;;;;5086033;28;20450;-88
2021/07/11 12:36:27;;;;;;;0.40;0.30;;;22.30;92.40;;;;;;5108108;28;20466;-89
2021/07/11 12:38:53;;;;;;;0.40;0.30;;;22.70;91.10;;;;;;5103425;28;20411;-88
2021/07/11 12:41:26;;;;;;;0.40;0.30;;;23.70;90.30;;;;;;5099576;28;20417;-91
2021/07/11 12:43:55;;;;;;;0.40;0.30;;;23.50;91.60;;;;;;5101140;28;20717;-90
2021/07/11 12:46:28;;;;;;;0.40;0.20;;;23.20;89.50;;;;;;5100104;28;20380;-89
2021/07/11 12:49:15;;;;;;;0.40;0.30;;;22.90;88.60;;;;;;5104762;28;20848;-88
2021/07/11 12:51:48;;;;;;;0.40;0.30;;;22.60;89.60;;;;;;5095101;28;20473;-92